Time;durP1;ratioP1;P1;durP2;ratioP2;P2;SDS_P1;SDS_P2;PMS_P1;PMS_P2;Temp;Humidity;BMP_temperature;BMP_pressure;BME280_temperature;BME280_humidity;BME280_pressure;Samples;Min_cycle;Max_cycle;Signal;HPM_P1;HPM_P2
2021/11/07 00:08:49;;;;;;;20.10;11.67;;;;;;;-1.73;100.00;96954.81;5014875;28;20531;-72
2021/11/07 00:11:33;;;;;;;21.40;11.55;;;;;;;-1.88;100.00;96953.72;5017972;28;20460;-72
2021/11/07 00:14:00;;;;;;;21.42;11.65;;;;;;;-1.90;100.00;96938.34;5025585;28;20045;-72
2021/11/07 00:16:32;;;;;;;24.73;14.63;;;;;;;-1.72;100.00;96926.38;5019120;28;20148;-72
2021/11/07 00:19:06;;;;;;;23.10;13.43;;;;;;;-1.67;100.00;96927.03;4999423;28;20545;-73
2021/11/07 00:21:41;;;;;;;29.40;15.07;;;;;;;-1.60;100.00;96932.75;5029897;28;20487;-73
2021/11/07 00:24:10;;;;;;;24.97;15.27;;;;;;;-1.59;100.00;96944.75;5006497;28;20563;-73
2021/11/07 00:29:13;;;;;;;26.87;15.77;;;;;;;-1.64;100.00;96964.75;5019910;28;20475;-72
2021/11/07 00:31:49;;;;;;;27.42;16.15;;;;;;;-1.67;100.00;96964.88;5007503;28;20491;-72
2021/11/07 00:37:18;;;;;;;33.67;17.87;;;;;;;-1.36;100.00;96935.97;5014202;28;21082;-73
2021/11/07 00:42:24;;;;;;;33.73;18.07;;;;;;;-1.20;100.00;96925.81;5030134;28;20519;-73
2021/11/07 00:44:56;;;;;;;34.33;18.63;;;;;;;-1.25;100.00;96941.47;5023322;28;20479;-72
2021/11/07 00:47:44;;;;;;;34.33;16.97;;;;;;;-1.28;100.00;96946.78;5010277;28;20467;-73
2021/11/07 00:50:15;;;;;;;33.17;17.93;;;;;;;-1.22;100.00;96951.66;5036438;28;20432;-73
2021/11/07 00:53:17;;;;;;;31.53;18.97;;;;;;;-1.22;100.00;96949.09;5006589;28;20476;-72
2021/11/07 00:55:50;;;;;;;25.37;15.83;;;;;;;-1.29;100.00;96939.97;5009620;28;20488;-73
2021/11/07 00:58:21;;;;;;;26.30;14.53;;;;;;;-1.34;100.00;96943.63;5033256;28;20455;-73
2021/11/07 01:01:12;;;;;;;26.47;15.53;;;;;;;-1.24;100.00;96938.03;5017315;28;20609;-73
2021/11/07 01:03:33;;;;;;;21.20;13.10;;;;;;;-1.34;100.00;96952.25;5040797;28;20475;-73
2021/11/07 01:05:59;;;;;;;26.40;13.73;;;;;;;-1.32;100.00;96965.06;5016808;28;20466;-72
2021/11/07 01:08:25;;;;;;;22.03;12.93;;;;;;;-1.37;100.00;96965.28;5030424;28;20535;-72
2021/11/07 01:10:50;;;;;;;23.93;13.73;;;;;;;-1.42;100.00;96959.47;5044103;28;20040;-71
2021/11/07 01:13:16;;;;;;;22.53;13.80;;;;;;;-1.41;100.00;96943.06;5034777;28;20061;-71
2021/11/07 01:15:42;;;;;;;24.70;14.63;;;;;;;-1.38;100.00;96919.72;5017579;28;20425;-71
2021/11/07 01:18:08;;;;;;;23.33;13.53;;;;;;;-1.40;100.00;96916.38;5014265;28;20455;-72
2021/11/07 01:20:34;;;;;;;28.27;15.50;;;;;;;-1.35;100.00;96921.34;5019451;28;20042;-72
2021/11/07 01:25:29;;;;;;;29.40;15.07;;;;;;;-1.33;100.00;96922.94;5033368;28;20032;-72
2021/11/07 01:27:57;;;;;;;29.33;17.23;;;;;;;-1.32;100.00;96928.94;5031558;28;20448;-73
2021/11/07 01:30:26;;;;;;;27.53;16.50;;;;;;;-1.38;100.00;96924.03;5016260;28;20450;-73
2021/11/07 01:33:03;;;;;;;27.17;15.57;;;;;;;-1.32;100.00;96939.25;5013567;28;20491;-74
2021/11/07 01:38:30;;;;;;;25.83;14.43;;;;;;;-1.29;100.00;96929.63;4996705;28;20483;-73
2021/11/07 01:41:16;;;;;;;22.10;13.23;;;;;;;-1.27;100.00;96922.66;5028364;28;20455;-73
2021/11/07 01:43:43;;;;;;;25.43;13.93;;;;;;;-1.24;100.00;96899.31;5018628;28;20484;-72
2021/11/07 01:48:49;;;;;;;24.67;14.73;;;;;;;-1.18;100.00;96911.06;5042219;28;20496;-72
2021/11/07 01:51:15;;;;;;;25.80;14.43;;;;;;;-1.13;100.00;96918.63;5001958;28;20471;-72
2021/11/07 01:53:41;;;;;;;27.60;16.03;;;;;;;-1.09;100.00;96917.56;5025550;28;21106;-72
2021/11/07 01:56:11;;;;;;;25.93;14.70;;;;;;;-1.08;100.00;96919.22;5038692;28;20028;-72
2021/11/07 01:58:38;;;;;;;28.50;16.10;;;;;;;-0.99;100.00;96921.41;5007100;28;20452;-71
2021/11/07 02:01:05;;;;;;;26.53;15.37;;;;;;;-0.97;100.00;96910.09;5013514;28;21023;-72
2021/11/07 02:03:33;;;;;;;25.57;14.77;;;;;;;-0.97;100.00;96909.25;5020462;28;21443;-71
2021/11/07 02:06:00;;;;;;;25.37;14.67;;;;;;;-1.02;100.00;96895.72;5032302;28;20466;-71
2021/11/07 02:08:26;;;;;;;28.10;15.50;;;;;;;-1.12;100.00;96879.00;5018711;28;20466;-71
2021/11/07 02:10:54;;;;;;;34.77;18.47;;;;;;;-1.10;100.00;96872.84;5005125;28;20530;-72
2021/11/07 02:13:20;;;;;;;26.57;15.73;;;;;;;-1.08;100.00;96867.59;5008951;28;20451;-72
2021/11/07 02:15:46;;;;;;;33.40;17.13;;;;;;;-1.04;100.00;96867.41;5038535;28;20468;-71
2021/11/07 02:18:13;;;;;;;25.80;13.87;;;;;;;-0.97;100.00;96857.63;5026650;28;20460;-71
2021/11/07 02:20:41;;;;;;;23.97;14.80;;;;;;;-0.93;100.00;96850.56;5021199;28;20551;-72
2021/11/07 02:23:12;;;;;;;26.50;14.80;;;;;;;-0.88;100.00;96844.25;5009250;28;20438;-71
2021/11/07 02:25:40;;;;;;;23.50;13.57;;;;;;;-0.88;100.00;96825.34;5022960;28;20872;-72
2021/11/07 02:28:08;;;;;;;26.63;15.03;;;;;;;-0.90;100.00;96822.03;5014309;28;20483;-70
2021/11/07 02:30:36;;;;;;;27.97;15.03;;;;;;;-0.85;100.00;96823.44;5042544;28;20447;-71
2021/11/07 02:33:02;;;;;;;23.90;14.53;;;;;;;-0.83;100.00;96824.22;5039785;28;20463;-71
2021/11/07 02:35:28;;;;;;;28.93;15.30;;;;;;;-0.87;100.00;96830.47;5040100;28;21458;-71
2021/11/07 02:37:55;;;;;;;25.13;14.73;;;;;;;-0.84;100.00;96838.06;5044386;28;20575;-71
2021/11/07 02:40:20;;;;;;;24.00;15.00;;;;;;;-0.86;100.00;96855.34;5043218;28;20630;-71
2021/11/07 02:42:46;;;;;;;27.70;13.93;;;;;;;-0.94;100.00;96831.63;5033303;28;20519;-71
2021/11/07 02:45:14;;;;;;;22.57;13.63;;;;;;;-0.98;100.00;96832.69;5029124;28;20048;-71
2021/11/07 02:47:40;;;;;;;22.77;13.00;;;;;;;-1.05;100.00;96827.00;5006430;28;20028;-70
2021/11/07 02:50:08;;;;;;;21.53;12.80;;;;;;;-0.96;100.00;96828.31;5037931;28;20810;-70
2021/11/07 02:52:51;;;;;;;24.17;12.77;;;;;;;-0.93;100.00;96824.75;5037522;28;20435;-72
2021/11/07 02:55:18;;;;;;;23.27;13.00;;;;;;;-0.85;100.00;96820.88;5012421;28;21106;-71
2021/11/07 02:57:47;;;;;;;19.53;12.47;;;;;;;-0.83;100.00;96811.31;5014884;28;20037;-71
2021/11/07 03:00:16;;;;;;;23.30;14.10;;;;;;;-0.79;100.00;96830.91;5036199;28;20537;-71
2021/11/07 03:02:43;;;;;;;22.63;12.87;;;;;;;-0.80;100.00;96824.06;5011193;28;20467;-71
2021/11/07 03:05:11;;;;;;;22.53;12.90;;;;;;;-0.78;100.00;96827.41;5038444;28;20478;-70
2021/11/07 03:07:41;;;;;;;21.43;12.40;;;;;;;-0.90;100.00;96829.78;5027339;28;20538;-72
2021/11/07 03:10:09;;;;;;;21.50;13.13;;;;;;;-0.78;100.00;96837.72;5033859;28;20459;-70
2021/11/07 03:12:37;;;;;;;20.60;12.50;;;;;;;-0.83;100.00;96844.88;5023561;28;20611;-73
2021/11/07 03:15:06;;;;;;;22.37;13.13;;;;;;;-0.88;100.00;96846.00;5034463;28;20446;-74
2021/11/07 03:17:32;;;;;;;21.03;11.93;;;;;;;-0.89;100.00;96854.66;4996708;28;20820;-73
2021/11/07 03:19:57;;;;;;;18.73;11.23;;;;;;;-0.93;100.00;96859.16;5005030;28;20533;-74
2021/11/07 03:22:28;;;;;;;21.77;12.20;;;;;;;-0.98;100.00;96863.69;5013497;28;20115;-74
2021/11/07 03:24:54;;;;;;;19.73;12.37;;;;;;;-0.99;100.00;96855.09;4994262;28;20560;-73
2021/11/07 03:27:40;;;;;;;21.33;12.83;;;;;;;-1.00;100.00;96845.69;5016837;28;20471;-73
2021/11/07 03:30:14;;;;;;;19.87;11.80;;;;;;;-0.98;100.00;96841.28;5001094;28;20446;-73
2021/11/07 03:32:42;;;;;;;24.90;13.77;;;;;;;-0.90;100.00;96838.34;5018209;28;20463;-73
2021/11/07 03:35:16;;;;;;;25.83;14.07;;;;;;;-0.72;100.00;96837.44;5035572;28;20432;-71
2021/11/07 03:37:54;;;;;;;24.13;12.77;;;;;;;-0.61;100.00;96825.75;5043280;28;20460;-71
2021/11/07 03:40:21;;;;;;;21.00;12.57;;;;;;;-0.58;100.00;96812.69;5036015;28;20433;-71
2021/11/07 03:42:47;;;;;;;24.20;14.07;;;;;;;-0.65;100.00;96803.56;5022539;28;20551;-73
2021/11/07 03:45:13;;;;;;;22.73;13.67;;;;;;;-0.50;100.00;96789.88;5002509;28;20561;-72
2021/11/07 03:47:39;;;;;;;20.80;12.27;;;;;;;-0.49;100.00;96792.38;5014648;28;20452;-73
2021/11/07 03:50:07;;;;;;;25.23;12.77;;;;;;;-0.54;100.00;96793.50;5012009;28;20543;-73
2021/11/07 03:52:33;;;;;;;25.30;12.93;;;;;;;-0.61;100.00;96805.06;5020275;28;20542;-73
2021/11/07 03:54:59;;;;;;;22.07;12.10;;;;;;;-0.77;100.00;96823.06;5008998;28;20929;-73
2021/11/07 03:57:25;;;;;;;22.73;12.93;;;;;;;-0.87;100.00;96827.88;5037116;28;20534;-72
2021/11/07 03:59:51;;;;;;;27.07;13.37;;;;;;;-1.25;100.00;96856.31;5032235;28;20579;-73
2021/11/07 04:02:17;;;;;;;22.50;12.07;;;;;;;-1.38;100.00;96856.97;5023412;28;20156;-72
2021/11/07 04:04:43;;;;;;;22.00;11.67;;;;;;;-1.43;100.00;96845.13;5039108;28;20040;-73
2021/11/07 04:07:09;;;;;;;22.13;11.60;;;;;;;-1.41;100.00;96832.16;5024565;28;20475;-73
2021/11/07 04:09:35;;;;;;;19.23;11.03;;;;;;;-1.39;100.00;96835.50;5018679;28;20017;-72
2021/11/07 04:12:01;;;;;;;21.00;11.70;;;;;;;-1.43;100.00;96828.81;5042355;28;20445;-73
2021/11/07 04:14:33;;;;;;;21.20;12.60;;;;;;;-1.35;100.00;96820.72;5045247;28;20052;-72
2021/11/07 04:17:06;;;;;;;21.00;12.63;;;;;;;-1.35;100.00;96816.38;5017656;28;20405;-72
2021/11/07 04:19:32;;;;;;;19.50;11.82;;;;;;;-1.40;100.00;96810.63;5035593;28;20452;-73
2021/11/07 04:22:03;;;;;;;22.30;13.57;;;;;;;-1.37;100.00;96805.31;5022176;28;20028;-72
2021/11/07 04:24:30;;;;;;;22.30;13.03;;;;;;;-1.35;100.00;96800.91;5021970;28;20048;-72
2021/11/07 04:26:55;;;;;;;22.47;13.13;;;;;;;-1.32;100.00;96792.19;5042220;28;20487;-71
2021/11/07 04:29:21;;;;;;;24.23;14.40;;;;;;;-1.29;100.00;96784.31;5042164;28;21003;-72
2021/11/07 04:31:47;;;;;;;26.40;14.40;;;;;;;-1.15;100.00;96773.31;5022951;28;20040;-72
2021/11/07 04:34:13;;;;;;;26.77;15.60;;;;;;;-0.98;100.00;96737.19;5039059;28;20024;-71
2021/11/07 04:36:38;;;;;;;28.27;15.33;;;;;;;-0.96;100.00;96722.47;5004615;28;20037;-71
2021/11/07 04:39:05;;;;;;;29.70;16.77;;;;;;;-0.95;100.00;96747.34;5032084;28;20071;-71
2021/11/07 04:41:30;;;;;;;28.80;16.20;;;;;;;-0.99;100.00;96772.50;5043350;28;20040;-71
2021/11/07 04:43:56;;;;;;;29.03;17.67;;;;;;;-0.97;100.00;96760.34;5016471;28;20443;-71
2021/11/07 04:46:22;;;;;;;28.07;15.00;;;;;;;-0.98;100.00;96756.09;5028159;28;20079;-71
2021/11/07 04:48:49;;;;;;;25.70;14.43;;;;;;;-1.12;100.00;96752.53;5026938;28;20099;-72
2021/11/07 04:51:16;;;;;;;25.37;14.20;;;;;;;-1.13;100.00;96763.78;5022652;28;20444;-71
2021/11/07 04:53:43;;;;;;;26.00;14.57;;;;;;;-1.15;100.00;96755.25;5019215;28;20447;-72
2021/11/07 04:56:08;;;;;;;23.33;13.93;;;;;;;-1.19;100.00;96770.06;5013015;28;20518;-70
2021/11/07 04:58:35;;;;;;;22.03;13.63;;;;;;;-1.27;100.00;96767.84;5036373;28;20475;-72
2021/11/07 05:01:02;;;;;;;24.33;14.43;;;;;;;-1.33;100.00;96767.31;5026490;28;20038;-71
2021/11/07 05:03:28;;;;;;;26.07;15.73;;;;;;;-1.26;100.00;96759.19;5045307;28;20447;-71
2021/11/07 05:05:55;;;;;;;28.70;16.87;;;;;;;-1.24;100.00;96759.09;5012733;28;20972;-72
2021/11/07 05:08:21;;;;;;;23.43;14.17;;;;;;;-1.23;100.00;96756.47;5022022;28;20454;-72
2021/11/07 05:10:47;;;;;;;27.40;15.47;;;;;;;-1.23;100.00;96766.78;5033216;28;20559;-72
2021/11/07 05:13:12;;;;;;;27.73;15.63;;;;;;;-1.20;100.00;96756.31;5046708;28;20036;-71
2021/11/07 05:15:39;;;;;;;28.83;16.60;;;;;;;-1.22;100.00;96755.53;5021741;28;20041;-72
2021/11/07 05:18:04;;;;;;;29.13;16.50;;;;;;;-1.19;100.00;96746.81;5019631;28;20071;-71
2021/11/07 05:20:30;;;;;;;26.33;14.53;;;;;;;-1.20;100.00;96742.59;5016187;28;20455;-71
2021/11/07 05:22:56;;;;;;;35.77;21.10;;;;;;;-1.27;100.00;96738.63;5024656;28;20390;-71
2021/11/07 05:25:23;;;;;;;27.50;16.63;;;;;;;-1.25;100.00;96747.94;5013527;28;20033;-71
2021/11/07 05:27:49;;;;;;;31.67;19.23;;;;;;;-1.32;100.00;96754.31;5024091;28;20456;-72
2021/11/07 05:30:17;;;;;;;29.03;17.47;;;;;;;-1.34;100.00;96747.56;5027432;28;20852;-71
2021/11/07 05:32:44;;;;;;;28.47;15.67;;;;;;;-1.29;100.00;96748.19;5035111;28;20529;-71
2021/11/07 05:35:15;;;;;;;27.20;17.03;;;;;;;-1.27;100.00;96748.97;5037223;28;20972;-71
2021/11/07 05:37:41;;;;;;;26.10;14.67;;;;;;;-1.36;100.00;96752.81;5043567;28;20821;-71
2021/11/07 05:40:08;;;;;;;47.83;23.20;;;;;;;-1.37;100.00;96756.31;5045774;28;20570;-71
2021/11/07 05:42:34;;;;;;;40.90;22.13;;;;;;;-1.35;100.00;96753.63;5053280;28;20174;-71
2021/11/07 05:45:00;;;;;;;26.77;15.00;;;;;;;-1.40;100.00;96763.34;5027951;28;21011;-72
2021/11/07 05:47:27;;;;;;;25.17;14.13;;;;;;;-1.40;100.00;96753.03;5026566;28;20586;-72
2021/11/07 05:49:54;;;;;;;41.43;14.67;;;;;;;-1.47;100.00;96755.06;5007306;28;20467;-72
2021/11/07 05:52:20;;;;;;;49.77;15.77;;;;;;;-1.53;100.00;96745.03;5012617;28;20448;-72
2021/11/07 05:54:46;;;;;;;34.57;14.33;;;;;;;-1.50;100.00;96744.91;5012493;28;20463;-72
2021/11/07 05:57:13;;;;;;;29.13;14.47;;;;;;;-1.55;100.00;96736.53;5017884;28;20099;-72
2021/11/07 05:59:39;;;;;;;37.07;15.37;;;;;;;-1.55;100.00;96721.06;5004793;28;21170;-72
2021/11/07 06:02:06;;;;;;;70.03;16.27;;;;;;;-1.69;100.00;96712.22;5027923;28;20459;-72
2021/11/07 06:04:32;;;;;;;87.43;14.47;;;;;;;-1.85;100.00;96713.84;5016977;28;20460;-72
2021/11/07 06:06:58;;;;;;;42.13;12.97;;;;;;;-1.89;100.00;96714.91;5035390;28;21106;-72
2021/11/07 06:09:24;;;;;;;38.73;14.03;;;;;;;-1.93;100.00;96713.38;5025741;28;20551;-72
2021/11/07 06:11:50;;;;;;;25.47;13.67;;;;;;;-1.95;100.00;96715.19;5037984;28;20642;-72
2021/11/07 06:14:16;;;;;;;37.90;15.60;;;;;;;-1.88;100.00;96703.69;5044495;28;20017;-72
2021/11/07 06:16:41;;;;;;;45.67;15.37;;;;;;;-1.91;100.00;96709.00;5027166;28;20531;-72
2021/11/07 06:19:07;;;;;;;47.00;16.77;;;;;;;-1.84;100.00;96700.06;5035649;28;20057;-72
2021/11/07 06:21:35;;;;;;;26.83;14.20;;;;;;;-1.79;100.00;96712.75;4999792;28;20034;-72
2021/11/07 06:24:01;;;;;;;34.93;15.27;;;;;;;-1.77;100.00;96711.75;5021097;28;20087;-72
2021/11/07 06:26:27;;;;;;;29.97;14.87;;;;;;;-1.68;100.00;96705.31;5014320;28;20526;-72
2021/11/07 06:28:54;;;;;;;38.80;15.43;;;;;;;-1.69;100.00;96704.50;5041418;28;20535;-72
2021/11/07 06:31:22;;;;;;;38.27;17.07;;;;;;;-1.63;100.00;96715.44;5037074;28;20025;-72
2021/11/07 06:33:48;;;;;;;46.53;16.60;;;;;;;-1.57;100.00;96722.88;5026804;28;20793;-73
2021/11/07 06:36:14;;;;;;;82.83;17.83;;;;;;;-1.60;100.00;96712.72;5036697;28;20559;-74
2021/11/07 06:38:40;;;;;;;55.67;16.13;;;;;;;-1.60;100.00;96702.41;5016167;28;20444;-70
2021/11/07 06:41:06;;;;;;;68.87;18.13;;;;;;;-1.56;100.00;96693.59;5026258;28;20444;-70
2021/11/07 06:43:33;;;;;;;56.07;17.33;;;;;;;-1.50;100.00;96690.72;5021752;28;20448;-70
2021/11/07 06:45:58;;;;;;;46.70;16.83;;;;;;;-1.46;100.00;96689.66;5023797;28;20026;-71
2021/11/07 06:48:24;;;;;;;56.83;18.43;;;;;;;-1.38;100.00;96676.38;5044521;28;21209;-73
2021/11/07 06:50:50;;;;;;;42.60;18.40;;;;;;;-1.35;100.00;96683.97;5031893;28;20040;-73
2021/11/07 06:53:17;;;;;;;61.70;18.17;;;;;;;-1.34;100.00;96685.63;5034583;28;20041;-72
2021/11/07 06:55:43;;;;;;;109.53;22.03;;;;;;;-1.17;100.00;96695.13;5014857;28;20545;-72
2021/11/07 06:58:09;;;;;;;57.97;17.60;;;;;;;-1.09;100.00;96704.16;5025424;28;20518;-72
2021/11/07 07:00:35;;;;;;;46.13;18.57;;;;;;;-0.99;100.00;96704.53;5019520;28;20033;-72
2021/11/07 07:03:00;;;;;;;37.47;17.50;;;;;;;-0.89;100.00;96705.75;5019703;28;20041;-72
2021/11/07 07:05:26;;;;;;;78.93;18.83;;;;;;;-0.88;100.00;96704.00;5034541;28;20486;-72
2021/11/07 07:08:05;;;;;;;94.20;20.77;;;;;;;-0.91;100.00;96697.22;5047509;28;20033;-72
2021/11/07 07:10:34;;;;;;;61.77;18.93;;;;;;;-0.91;100.00;96699.00;5015515;28;20034;-73
2021/11/07 07:13:08;;;;;;;54.67;19.97;;;;;;;-0.85;100.00;96699.50;5005885;28;21072;-73
2021/11/07 07:15:45;;;;;;;57.67;18.53;;;;;;;-0.78;100.00;96698.28;5019232;28;20463;-73
2021/11/07 07:18:40;;;;;;;65.10;20.47;;;;;;;-0.68;100.00;96697.81;5009784;28;20469;-73
2021/11/07 07:32:08;;;;;;;38.83;17.93;;;;;;;0.66;100.00;96662.03;5014981;28;20487;-73
2021/11/07 07:34:37;;;;;;;24.20;15.17;;;;;;;1.16;100.00;96660.84;5028756;28;20436;-73
2021/11/07 07:37:02;;;;;;;23.10;14.27;;;;;;;1.31;100.00;96660.88;5036638;28;20495;-73
2021/11/07 07:39:28;;;;;;;20.33;12.40;;;;;;;1.52;100.00;96651.78;5025731;28;20496;-71
2021/11/07 07:41:54;;;;;;;18.83;12.80;;;;;;;1.58;100.00;96648.84;5033686;28;20044;-73
2021/11/07 07:44:21;;;;;;;18.23;11.83;;;;;;;2.07;100.00;96644.94;5013121;28;20029;-73
2021/11/07 07:46:47;;;;;;;19.60;12.17;;;;;;;2.27;100.00;96654.88;5011191;28;20052;-72
2021/11/07 07:49:17;;;;;;;18.53;12.20;;;;;;;2.78;100.00;96646.41;5044185;28;20467;-72
2021/11/07 07:51:45;;;;;;;36.70;19.03;;;;;;;2.75;100.00;96636.22;5022422;28;20079;-73
2021/11/07 07:54:11;;;;;;;23.13;14.03;;;;;;;3.03;100.00;96630.88;5029775;28;20108;-72
2021/11/07 07:56:37;;;;;;;22.80;12.80;;;;;;;2.97;100.00;96626.06;5038605;28;20116;-72
2021/11/07 07:59:05;;;;;;;20.37;12.67;;;;;;;3.47;100.00;96634.81;5029852;28;20128;-72
2021/11/07 08:01:32;;;;;;;17.40;12.47;;;;;;;3.95;100.00;96631.47;5011633;28;20043;-72
2021/11/07 08:03:57;;;;;;;25.93;16.27;;;;;;;4.20;100.00;96620.16;5028970;28;20036;-73
2021/11/07 08:06:24;;;;;;;21.03;13.57;;;;;;;4.22;100.00;96610.47;5015649;28;20041;-74
2021/11/07 08:08:49;;;;;;;16.47;10.90;;;;;;;4.33;100.00;96602.72;5035651;28;20024;-73
2021/11/07 08:11:16;;;;;;;17.33;10.40;;;;;;;4.84;100.00;96609.41;5020915;28;20033;-73
2021/11/07 08:13:42;;;;;;;17.63;10.73;;;;;;;4.53;100.00;96614.28;5016375;28;20083;-74
2021/11/07 08:16:08;;;;;;;15.80;9.97;;;;;;;4.84;100.00;96592.00;5015936;28;20104;-74
2021/11/07 08:18:35;;;;;;;14.77;9.87;;;;;;;5.46;100.00;96582.09;5017006;28;20033;-74
2021/11/07 08:21:01;;;;;;;14.60;10.23;;;;;;;5.72;97.84;96583.50;5013476;28;20207;-74
2021/11/07 08:23:27;;;;;;;13.67;9.07;;;;;;;5.67;98.26;96589.09;5024650;28;20071;-74
2021/11/07 08:25:54;;;;;;;14.60;10.13;;;;;;;5.72;98.28;96587.88;5016556;28;20021;-75
2021/11/07 08:28:21;;;;;;;15.70;9.57;;;;;;;6.06;99.44;96588.69;4995752;28;20025;-74
2021/11/07 08:30:51;;;;;;;14.67;8.93;;;;;;;5.87;99.81;96597.13;5017519;28;20033;-75
2021/11/07 08:33:17;;;;;;;14.17;9.70;;;;;;;5.65;100.00;96595.38;5008134;28;20030;-74
2021/11/07 08:35:45;;;;;;;14.47;9.73;;;;;;;5.71;100.00;96576.63;5032224;28;20080;-74
2021/11/07 08:38:16;;;;;;;13.53;8.83;;;;;;;5.04;100.00;96566.22;5014941;28;20663;-74
2021/11/07 08:40:54;;;;;;;14.60;9.77;;;;;;;5.29;100.00;96576.41;5008533;28;20507;-73
2021/11/07 09:05:18;;;;;;;17.33;8.80;;;;;;;3.95;100.00;96572.47;5012146;28;19944;-73
2021/11/07 09:10:29;;;;;;;17.97;11.27;;;;;;;3.79;100.00;96592.72;5018853;28;20087;-72
2021/11/07 09:12:55;;;;;;;17.27;11.03;;;;;;;3.84;100.00;96592.41;4991924;28;20092;-73
2021/11/07 09:15:23;;;;;;;16.37;9.40;;;;;;;3.93;100.00;96558.75;5025524;28;20032;-73
2021/11/07 09:17:49;;;;;;;14.77;9.90;;;;;;;4.09;100.00;96562.81;5009439;28;20112;-73
2021/11/07 09:20:23;;;;;;;17.13;10.17;;;;;;;4.07;100.00;96555.16;5026100;28;20586;-73
2021/11/07 09:22:55;;;;;;;15.77;10.40;;;;;;;4.05;100.00;96548.38;5039548;28;20037;-74
2021/11/07 09:25:25;;;;;;;16.45;9.38;;;;;;;4.19;100.00;96537.78;5038412;28;20040;-73
2021/11/07 09:28:05;;;;;;;15.60;9.20;;;;;;;4.47;100.00;96554.84;5021073;28;20110;-71
2021/11/07 09:33:15;;;;;;;12.67;8.53;;;;;;;4.79;100.00;96549.81;5025333;28;20516;-74
2021/11/07 09:36:03;;;;;;;13.37;8.87;;;;;;;4.83;100.00;96532.16;5022105;28;20068;-73
2021/11/07 09:38:32;;;;;;;10.77;8.07;;;;;;;6.60;100.00;96510.22;5012718;28;20033;-74
2021/11/07 09:41:15;;;;;;;12.50;8.40;;;;;;;7.17;95.14;96505.41;5012767;28;20075;-74
2021/11/07 09:48:36;;;;;;;14.60;7.80;;;;;;;7.47;91.68;96530.72;5034480;28;20032;-72
2021/11/07 09:51:04;;;;;;;13.17;7.57;;;;;;;6.96;94.41;96529.00;5031607;28;20056;-72
2021/11/07 09:53:32;;;;;;;9.60;6.70;;;;;;;6.61;96.71;96527.56;5009443;28;20025;-74
2021/11/07 09:55:58;;;;;;;10.73;6.67;;;;;;;6.69;96.66;96526.91;5029191;28;20491;-74
2021/11/07 09:58:24;;;;;;;11.17;6.40;;;;;;;6.31;97.13;96527.50;5018133;28;20029;-73
2021/11/07 10:00:53;;;;;;;12.40;8.13;;;;;;;6.01;98.43;96515.13;5019935;28;20043;-72
2021/11/07 10:03:21;;;;;;;10.17;6.80;;;;;;;5.92;99.17;96506.22;5019695;28;20029;-74
2021/11/07 10:05:50;;;;;;;9.33;5.63;;;;;;;5.86;98.72;96510.16;5010093;28;20033;-73
2021/11/07 10:08:16;;;;;;;9.63;5.90;;;;;;;5.75;97.27;96510.19;5032945;28;20482;-72
2021/11/07 10:11:01;;;;;;;11.37;6.13;;;;;;;5.85;95.99;96505.06;5009847;28;20037;-74
2021/11/07 10:13:28;;;;;;;10.60;6.00;;;;;;;5.87;96.43;96498.78;4993118;28;20188;-73
2021/11/07 10:16:06;;;;;;;12.87;7.63;;;;;;;6.05;95.91;96499.09;5030216;28;20028;-75
2021/11/07 10:18:41;;;;;;;11.33;4.83;;;;;;;5.97;95.37;96511.09;5043093;28;20510;-75
2021/11/07 10:21:38;;;;;;;8.50;5.17;;;;;;;6.07;93.45;96512.00;5010609;28;20611;-76
2021/11/07 10:24:15;;;;;;;8.97;5.90;;;;;;;5.95;93.51;96523.47;5019265;28;20068;-77
2021/11/07 10:26:45;;;;;;;9.90;5.97;;;;;;;5.83;94.01;96531.28;5017513;28;20045;-75
2021/11/07 10:29:41;;;;;;;7.67;4.50;;;;;;;5.76;93.63;96514.44;4996558;28;20026;-75
2021/11/07 10:32:21;;;;;;;8.30;5.10;;;;;;;5.93;95.51;96507.91;5033795;28;20030;-75
2021/11/07 10:48:24;;;;;;;9.47;5.33;;;;;;;6.28;93.06;96467.66;5039691;28;20083;-76
2021/11/07 10:53:44;;;;;;;8.48;4.22;;;;;;;6.49;92.17;96478.94;5033669;28;20427;-76
2021/11/07 10:56:11;;;;;;;9.10;3.93;;;;;;;6.35;89.98;96472.25;5044308;28;20036;-73
2021/11/07 10:58:41;;;;;;;9.33;4.43;;;;;;;6.46;89.83;96470.53;5024276;28;20034;-74
2021/11/07 11:01:22;;;;;;;8.20;4.47;;;;;;;6.43;91.31;96474.22;5024370;28;20048;-73
2021/11/07 11:03:58;;;;;;;7.53;4.07;;;;;;;6.38;92.06;96465.94;5017516;28;20033;-76
2021/11/07 11:06:24;;;;;;;7.43;4.23;;;;;;;6.21;91.96;96462.13;5019378;28;20037;-74
2021/11/07 11:11:44;;;;;;;7.87;4.23;;;;;;;6.05;92.66;96459.09;5041703;28;20040;-76
2021/11/07 11:19:42;;;;;;;9.17;4.90;;;;;;;6.07;95.02;96463.25;5019486;28;20099;-73
2021/11/07 11:27:59;;;;;;;8.30;5.03;;;;;;;5.98;99.63;96452.72;5022473;28;20055;-76
2021/11/07 11:30:53;;;;;;;7.63;5.03;;;;;;;5.83;99.87;96463.41;5024592;28;20072;-75
2021/11/07 11:36:17;;;;;;;8.60;4.57;;;;;;;5.87;97.43;96448.38;5042480;28;20567;-76
2021/11/07 11:38:47;;;;;;;8.53;4.90;;;;;;;5.91;96.89;96442.75;5044064;28;20052;-76
2021/11/07 11:43:49;;;;;;;9.43;5.40;;;;;;;6.38;95.23;96430.19;5026207;28;20036;-75
2021/11/07 11:46:23;;;;;;;9.90;5.53;;;;;;;6.45;94.40;96440.97;5023234;28;20455;-74
2021/11/07 11:51:50;;;;;;;7.90;4.43;;;;;;;6.23;93.69;96447.13;5033194;28;20044;-75
2021/11/07 11:54:51;;;;;;;9.17;4.77;;;;;;;6.33;93.99;96432.34;5024078;28;20032;-74
2021/11/07 11:57:29;;;;;;;7.70;3.97;;;;;;;6.51;92.94;96423.94;5020326;28;20033;-74
2021/11/07 12:03:21;;;;;;;7.10;4.00;;;;;;;6.78;92.60;96420.78;5012160;28;20670;-74
2021/11/07 12:05:55;;;;;;;7.53;4.03;;;;;;;7.37;90.64;96406.91;5029216;28;20042;-74
2021/11/07 12:16:56;;;;;;;11.23;5.43;;;;;;;8.06;84.88;96392.88;5040612;28;20048;-74
2021/11/07 12:19:39;;;;;;;8.00;4.70;;;;;;;7.72;86.36;96393.31;5029721;28;20032;-74
2021/11/07 12:22:11;;;;;;;8.57;5.27;;;;;;;7.54;86.34;96402.78;5004308;28;20229;-74
2021/11/07 12:24:58;;;;;;;8.17;4.73;;;;;;;7.27;87.44;96403.44;5018531;28;20039;-74
2021/11/07 12:27:42;;;;;;;9.13;4.20;;;;;;;7.15;87.09;96394.91;5028249;28;20098;-74
2021/11/07 12:30:10;;;;;;;7.68;4.28;;;;;;;7.08;89.09;96397.22;5032343;28;20033;-74
2021/11/07 12:32:38;;;;;;;7.70;4.03;;;;;;;7.41;88.25;96397.84;5019840;28;20055;-75
2021/11/07 12:35:19;;;;;;;6.77;4.20;;;;;;;7.49;88.72;96394.53;5026560;28;20483;-75
2021/11/07 12:40:37;;;;;;;7.67;3.83;;;;;;;7.44;87.90;96386.25;5041269;28;20048;-74
2021/11/07 12:43:06;;;;;;;7.57;4.70;;;;;;;7.64;88.07;96376.63;5031481;28;20148;-74
2021/11/07 12:45:39;;;;;;;7.30;4.03;;;;;;;7.64;88.53;96377.44;5018608;28;20028;-75
2021/11/07 12:48:08;;;;;;;7.20;4.28;;;;;;;7.59;88.72;96378.84;5017177;28;20407;-74
2021/11/07 12:50:58;;;;;;;7.37;4.40;;;;;;;7.42;88.97;96373.31;5011841;28;20077;-74
2021/11/07 12:53:26;;;;;;;7.57;4.10;;;;;;;7.32;89.94;96372.47;5035753;28;20862;-74
2021/11/07 12:55:53;;;;;;;68.80;46.83;;;;;;;7.33;89.82;96377.56;5010972;28;20072;-74
2021/11/07 12:58:18;;;;;;;19.37;12.17;;;;;;;7.38;90.87;96376.31;5015793;28;20045;-74
2021/11/07 13:00:45;;;;;;;13.67;9.27;;;;;;;7.45;90.15;96380.09;4989398;28;20488;-74
2021/11/07 13:03:14;;;;;;;15.63;13.17;;;;;;;7.48;90.42;96367.56;5010827;28;20107;-76
2021/11/07 13:05:42;;;;;;;8.70;4.87;;;;;;;7.46;91.27;96379.94;5023217;28;20024;-75
2021/11/07 13:08:19;;;;;;;9.07;5.23;;;;;;;7.39;91.09;96372.78;5009968;28;20033;-74
2021/11/07 13:11:01;;;;;;;13.90;6.03;;;;;;;7.50;91.18;96385.72;5023576;28;20172;-74
2021/11/07 13:13:38;;;;;;;7.27;4.23;;;;;;;7.45;91.34;96370.44;5021319;28;20032;-74
2021/11/07 13:29:54;;;;;;;8.27;4.57;;;;;;;7.54;92.51;96366.16;5009327;28;20030;-74
2021/11/07 13:34:59;;;;;;;7.60;3.97;;;;;;;7.57;93.08;96365.88;5025285;28;20061;-74
2021/11/07 13:37:43;;;;;;;6.07;3.70;;;;;;;7.58;92.65;96362.31;5026067;28;20029;-74
2021/11/07 13:40:33;;;;;;;6.53;3.87;;;;;;;7.54;93.41;96361.78;5017885;28;20034;-75
2021/11/07 13:43:09;;;;;;;7.17;4.17;;;;;;;7.49;94.00;96358.72;5045186;28;20806;-74
2021/11/07 13:45:40;;;;;;;7.70;3.67;;;;;;;7.30;95.11;96361.31;5018999;28;20490;-75
2021/11/07 13:48:29;;;;;;;8.63;4.00;;;;;;;7.30;95.63;96363.94;5036211;28;20033;-74